AFR42VQ LFMN-LFPG
Flight info
| Callsign | AFR42VQ |
|---|---|
| Flight time | N/A |
| Altitude | 32000 |
| Route | OKTET DCT GIPNO DCT LOGNI DCT MOKIP DCT ARFOZ DCT TINIL |
| Aircraft | A320/M-SDE3FGHIRWY/LB1 |
Departure
| Time | 2026-05-01 14:26 |
|---|---|
| Airport | Nice-Côte d'Azur Airport (LFMN) |
Arrival
| Time | N/A |
|---|---|
| Airport | Charles de Gaulle International Airport (LFPG) |
| Time | Latitude | Longitude | Altitude | Speed | Heading |
|---|---|---|---|---|---|
| 2026-05-01 13:55 | 43.66047 | 7.20710 | 21 ft | 0 kts | 291° |
| 2026-05-01 14:16 | 43.66041 | 7.20731 | 21 ft | 4 kts | 291° |
| 2026-05-01 14:16 | 43.66032 | 7.20763 | 21 ft | 3 kts | 291° |
| 2026-05-01 14:16 | 43.66027 | 7.20784 | 25 ft | 4 kts | 266° |
| 2026-05-01 14:16 | 43.66036 | 7.20806 | 23 ft | 4 kts | 187° |
| 2026-05-01 14:17 | 43.66062 | 7.20804 | 23 ft | 3 kts | 171° |
| 2026-05-01 14:17 | 43.66066 | 7.20803 | 23 ft | 0 kts | 171° |
| 2026-05-01 14:21 | 43.66036 | 7.20810 | 23 ft | 9 kts | 171° |
| 2026-05-01 14:21 | 43.65952 | 7.20829 | 21 ft | 16 kts | 171° |
| 2026-05-01 14:22 | 43.65725 | 7.20820 | 21 ft | 15 kts | 231° |
| 2026-05-01 14:22 | 43.65639 | 7.20712 | 21 ft | 18 kts | 223° |
| 2026-05-01 14:22 | 43.65544 | 7.20581 | 21 ft | 20 kts | 224° |
| 2026-05-01 14:22 | 43.65441 | 7.20441 | 21 ft | 22 kts | 224° |
| 2026-05-01 14:23 | 43.65338 | 7.20303 | 21 ft | 17 kts | 215° |
| 2026-05-01 14:23 | 43.65237 | 7.20347 | 20 ft | 18 kts | 136° |
| 2026-05-01 14:23 | 43.65146 | 7.20472 | 21 ft | 19 kts | 137° |
| 2026-05-01 14:23 | 43.65022 | 7.20489 | 21 ft | 20 kts | 206° |
| 2026-05-01 14:24 | 43.64916 | 7.20360 | 22 ft | 21 kts | 224° |
| 2026-05-01 14:24 | 43.64821 | 7.20226 | 21 ft | 15 kts | 225° |
| 2026-05-01 14:24 | 43.64741 | 7.20182 | 22 ft | 13 kts | 168° |
| 2026-05-01 14:24 | 43.64695 | 7.20268 | 23 ft | 11 kts | 88° |
| 2026-05-01 14:25 | 43.64717 | 7.20311 | 25 ft | 0 kts | 45° |
| 2026-05-01 14:25 | 43.64864 | 7.20513 | 24 ft | 68 kts | 45° |
| 2026-05-01 14:26 | 43.65359 | 7.21194 | 23 ft | 130 kts | 45° |
| 2026-05-01 14:26 | 43.66868 | 7.23430 | 813 ft | 165 kts | 70° |
| 2026-05-01 14:26 | 43.66888 | 7.24950 | 1460 ft | 161 kts | 114° |
| 2026-05-01 14:27 | 43.66192 | 7.26192 | 2009 ft | 172 kts | 136° |
| 2026-05-01 14:27 | 43.65266 | 7.27372 | 2428 ft | 190 kts | 137° |
| 2026-05-01 14:27 | 43.64239 | 7.28625 | 2832 ft | 207 kts | 136° |
| 2026-05-01 14:28 | 43.62010 | 7.31311 | 4285 ft | 218 kts | 144° |
| 2026-05-01 14:28 | 43.60545 | 7.31890 | 4963 ft | 228 kts | 183° |
| 2026-05-01 14:28 | 43.59072 | 7.31078 | 5631 ft | 234 kts | 213° |
| 2026-05-01 14:28 | 43.57681 | 7.29818 | 6254 ft | 242 kts | 211° |
| 2026-05-01 14:29 | 43.56252 | 7.28549 | 6975 ft | 246 kts | 219° |
| 2026-05-01 14:29 | 43.55202 | 7.26710 | 7632 ft | 248 kts | 250° |
| 2026-05-01 14:30 | 43.56629 | 7.20400 | 9696 ft | 245 kts | 311° |
| 2026-05-01 14:30 | 43.57699 | 7.18541 | 10380 ft | 249 kts | 311° |
| 2026-05-01 14:30 | 43.58784 | 7.16657 | 11049 ft | 252 kts | 311° |
| 2026-05-01 14:31 | 43.61013 | 7.12840 | 12387 ft | 257 kts | 317° |
| 2026-05-01 14:31 | 43.62391 | 7.11175 | 12774 ft | 274 kts | 322° |
| 2026-05-01 14:31 | 43.63907 | 7.09449 | 12996 ft | 298 kts | 323° |
| 2026-05-01 14:31 | 43.65553 | 7.07587 | 13430 ft | 311 kts | 322° |
| 2026-05-01 14:32 | 43.67238 | 7.05674 | 14129 ft | 316 kts | 322° |
| 2026-05-01 14:32 | 43.68941 | 7.03733 | 14778 ft | 319 kts | 322° |
| 2026-05-01 14:32 | 43.70660 | 7.01769 | 15413 ft | 323 kts | 322° |
| 2026-05-01 14:32 | 43.72401 | 6.99778 | 16060 ft | 327 kts | 322° |
| 2026-05-01 14:33 | 43.74164 | 6.97763 | 16694 ft | 331 kts | 322° |
| 2026-05-01 14:33 | 43.75947 | 6.95726 | 17303 ft | 335 kts | 322° |
| 2026-05-01 14:33 | 43.77755 | 6.93654 | 17919 ft | 339 kts | 322° |
| 2026-05-01 14:33 | 43.79581 | 6.91553 | 18538 ft | 343 kts | 322° |
| 2026-05-01 14:34 | 43.81424 | 6.89431 | 19075 ft | 346 kts | 322° |
| 2026-05-01 14:34 | 43.83283 | 6.87294 | 19623 ft | 349 kts | 322° |
| 2026-05-01 14:34 | 43.85153 | 6.85145 | 20186 ft | 350 kts | 321° |
| 2026-05-01 14:34 | 43.87033 | 6.82980 | 20727 ft | 353 kts | 321° |
| 2026-05-01 14:35 | 43.88931 | 6.80792 | 21225 ft | 357 kts | 321° |
| 2026-05-01 14:35 | 43.90850 | 6.78578 | 21740 ft | 360 kts | 321° |
| 2026-05-01 14:35 | 43.92812 | 6.76398 | 22294 ft | 362 kts | 327° |
| 2026-05-01 14:35 | 43.95016 | 6.74716 | 22807 ft | 363 kts | 339° |
| 2026-05-01 14:36 | 43.97431 | 6.73695 | 23325 ft | 363 kts | 348° |
| 2026-05-01 14:36 | 43.99913 | 6.72899 | 23707 ft | 371 kts | 348° |
| 2026-05-01 14:36 | 44.02448 | 6.72083 | 23849 ft | 384 kts | 348° |
| 2026-05-01 14:36 | 44.05096 | 6.71225 | 23968 ft | 397 kts | 348° |
| 2026-05-01 14:37 | 44.07813 | 6.70340 | 24220 ft | 404 kts | 348° |
| 2026-05-01 14:37 | 44.10566 | 6.69438 | 24602 ft | 407 kts | 347° |
| 2026-05-01 14:37 | 44.13332 | 6.68531 | 25010 ft | 409 kts | 347° |
| 2026-05-01 14:37 | 44.16108 | 6.67622 | 25457 ft | 410 kts | 347° |
| 2026-05-01 14:38 | 44.18891 | 6.66711 | 25873 ft | 412 kts | 347° |
| 2026-05-01 14:38 | 44.21691 | 6.65796 | 26255 ft | 413 kts | 347° |
| 2026-05-01 14:38 | 44.24495 | 6.64876 | 26648 ft | 415 kts | 346° |
| 2026-05-01 14:38 | 44.27314 | 6.63948 | 26997 ft | 418 kts | 346° |
| 2026-05-01 14:39 | 44.30154 | 6.63015 | 27342 ft | 420 kts | 346° |
| 2026-05-01 14:39 | 44.33003 | 6.62076 | 27713 ft | 422 kts | 346° |
| 2026-05-01 14:39 | 44.35861 | 6.61131 | 28083 ft | 423 kts | 346° |
| 2026-05-01 14:39 | 44.38733 | 6.60184 | 28436 ft | 425 kts | 346° |
| 2026-05-01 14:40 | 44.41622 | 6.59232 | 28789 ft | 427 kts | 346° |
| 2026-05-01 14:40 | 44.44518 | 6.58274 | 29109 ft | 429 kts | 346° |
| 2026-05-01 14:40 | 44.47393 | 6.57117 | 29405 ft | 431 kts | 338° |
| 2026-05-01 14:40 | 44.50111 | 6.55348 | 29729 ft | 431 kts | 329° |
| 2026-05-01 14:41 | 44.52626 | 6.53056 | 30035 ft | 432 kts | 325° |
| 2026-05-01 14:41 | 44.55120 | 6.50678 | 30353 ft | 434 kts | 325° |
| 2026-05-01 14:41 | 44.57622 | 6.48303 | 30619 ft | 435 kts | 325° |
| 2026-05-01 14:41 | 44.60103 | 6.45951 | 30846 ft | 436 kts | 325° |
| 2026-05-01 14:42 | 44.62619 | 6.43565 | 31060 ft | 437 kts | 325° |
| 2026-05-01 14:42 | 44.65143 | 6.41170 | 31299 ft | 439 kts | 325° |
| 2026-05-01 14:42 | 44.67678 | 6.38758 | 31531 ft | 440 kts | 325° |
| 2026-05-01 14:42 | 44.70210 | 6.36339 | 31848 ft | 439 kts | 325° |
| 2026-05-01 14:43 | 44.72732 | 6.33926 | 32178 ft | 438 kts | 325° |
| 2026-05-01 14:43 | 44.75249 | 6.31518 | 32519 ft | 436 kts | 324° |
| 2026-05-01 14:43 | 44.77755 | 6.29113 | 32877 ft | 435 kts | 324° |
| 2026-05-01 14:43 | 44.80252 | 6.26713 | 33222 ft | 433 kts | 324° |
| 2026-05-01 14:44 | 44.82735 | 6.24328 | 33579 ft | 432 kts | 324° |
| 2026-05-01 14:44 | 44.87690 | 6.19584 | 34209 ft | 430 kts | 324° |
| 2026-05-01 14:44 | 44.90149 | 6.17221 | 34278 ft | 424 kts | 324° |
| 2026-05-01 14:45 | 44.97334 | 6.10300 | 34289 ft | 417 kts | 324° |
| 2026-05-01 14:46 | 45.02129 | 6.05660 | 34288 ft | 418 kts | 323° |
| 2026-05-01 14:46 | 45.09326 | 5.98680 | 34279 ft | 418 kts | 324° |
| 2026-05-01 14:47 | 45.14126 | 5.94021 | 34282 ft | 418 kts | 323° |
| 2026-05-01 14:48 | 45.21313 | 5.87018 | 34271 ft | 418 kts | 323° |
| 2026-05-01 14:48 | 45.28492 | 5.80001 | 34270 ft | 417 kts | 323° |
| 2026-05-01 14:49 | 45.38044 | 5.70630 | 34232 ft | 419 kts | 323° |
| 2026-05-01 14:50 | 45.47649 | 5.61166 | 34242 ft | 420 kts | 323° |
| 2026-05-01 14:51 | 45.54863 | 5.54056 | 34241 ft | 420 kts | 324° |
| 2026-05-01 14:52 | 45.62809 | 5.48619 | 34238 ft | 423 kts | 334° |
| 2026-05-01 14:53 | 45.70901 | 5.43494 | 34231 ft | 424 kts | 333° |
| 2026-05-01 14:53 | 45.76297 | 5.40073 | 34229 ft | 425 kts | 333° |
| 2026-05-01 14:54 | 45.81662 | 5.36659 | 34230 ft | 425 kts | 333° |
| 2026-05-01 14:54 | 45.87073 | 5.33218 | 34242 ft | 425 kts | 333° |
| 2026-05-01 14:55 | 45.92480 | 5.29774 | 34235 ft | 425 kts | 333° |
| 2026-05-01 14:55 | 45.97884 | 5.26312 | 34234 ft | 425 kts | 333° |
| 2026-05-01 14:56 | 46.03288 | 5.22842 | 34229 ft | 425 kts | 333° |
| 2026-05-01 14:56 | 46.08689 | 5.19367 | 34233 ft | 425 kts | 333° |
| 2026-05-01 14:57 | 46.14087 | 5.15895 | 34237 ft | 425 kts | 333° |
| 2026-05-01 14:57 | 46.22182 | 5.10773 | 34216 ft | 427 kts | 338° |
| 2026-05-01 14:58 | 46.28071 | 5.09299 | 34218 ft | 435 kts | 356° |
| 2026-05-01 14:58 | 46.34143 | 5.09342 | 34217 ft | 436 kts | 356° |
| 2026-05-01 14:59 | 46.40223 | 5.09353 | 34214 ft | 436 kts | 356° |
| 2026-05-01 14:59 | 46.46269 | 5.09363 | 34225 ft | 437 kts | 356° |
| 2026-05-01 15:00 | 46.55399 | 5.09408 | 34216 ft | 438 kts | 356° |
| 2026-05-01 15:01 | 46.61500 | 5.09438 | 34217 ft | 438 kts | 356° |
| 2026-05-01 15:01 | 46.67596 | 5.09461 | 34217 ft | 438 kts | 356° |
| 2026-05-01 15:02 | 46.73694 | 5.09479 | 34220 ft | 438 kts | 356° |
| 2026-05-01 15:02 | 46.79754 | 5.09503 | 34217 ft | 438 kts | 356° |
| 2026-05-01 15:03 | 46.85858 | 5.09526 | 34225 ft | 438 kts | 356° |
| 2026-05-01 15:03 | 46.91963 | 5.09549 | 34212 ft | 439 kts | 356° |
| 2026-05-01 15:04 | 46.98080 | 5.09583 | 34212 ft | 439 kts | 356° |
| 2026-05-01 15:04 | 47.04199 | 5.09608 | 34212 ft | 440 kts | 356° |
| 2026-05-01 15:05 | 47.10292 | 5.09634 | 34205 ft | 441 kts | 358° |
| 2026-05-01 15:05 | 47.16445 | 5.09668 | 34195 ft | 442 kts | 358° |
| 2026-05-01 15:06 | 47.21613 | 5.09690 | 34201 ft | 443 kts | 358° |
| 2026-05-01 15:06 | 47.27747 | 5.09720 | 34202 ft | 444 kts | 358° |
| 2026-05-01 15:07 | 47.33944 | 5.09750 | 34032 ft | 446 kts | 359° |
| 2026-05-01 15:07 | 47.37039 | 5.09766 | 33756 ft | 444 kts | 359° |
| 2026-05-01 15:07 | 47.40128 | 5.09781 | 33485 ft | 442 kts | 359° |
| 2026-05-01 15:07 | 47.43200 | 5.09794 | 33217 ft | 441 kts | 359° |
| 2026-05-01 15:08 | 47.46264 | 5.09806 | 32944 ft | 440 kts | 359° |
| 2026-05-01 15:08 | 47.49319 | 5.09820 | 32703 ft | 439 kts | 360° |
| 2026-05-01 15:08 | 47.52371 | 5.09836 | 32427 ft | 438 kts | 360° |
| 2026-05-01 15:08 | 47.55398 | 5.09535 | 31938 ft | 435 kts | 349° |
| 2026-05-01 15:09 | 47.58313 | 5.08434 | 31439 ft | 430 kts | 339° |
| 2026-05-01 15:09 | 47.61024 | 5.06602 | 30941 ft | 426 kts | 328° |
| 2026-05-01 15:09 | 47.63460 | 5.04142 | 30439 ft | 422 kts | 318° |
| 2026-05-01 15:09 | 47.65703 | 5.01347 | 29891 ft | 420 kts | 317° |
| 2026-05-01 15:10 | 47.67899 | 4.98595 | 29430 ft | 417 kts | 317° |
| 2026-05-01 15:10 | 47.72291 | 4.93063 | 28496 ft | 410 kts | 317° |
| 2026-05-01 15:10 | 47.74458 | 4.90331 | 28061 ft | 407 kts | 317° |
| 2026-05-01 15:11 | 47.76628 | 4.87588 | 27841 ft | 412 kts | 317° |
| 2026-05-01 15:11 | 47.80981 | 4.82062 | 27292 ft | 411 kts | 317° |
| 2026-05-01 15:11 | 47.83152 | 4.79307 | 27011 ft | 409 kts | 317° |
| 2026-05-01 15:12 | 47.85319 | 4.76554 | 26736 ft | 408 kts | 317° |
| 2026-05-01 15:12 | 47.89612 | 4.71083 | 26190 ft | 404 kts | 317° |
| 2026-05-01 15:12 | 47.91740 | 4.68362 | 25916 ft | 403 kts | 317° |
| 2026-05-01 15:13 | 47.98068 | 4.60262 | 25124 ft | 401 kts | 317° |
| 2026-05-01 15:14 | 48.02286 | 4.54842 | 24577 ft | 398 kts | 317° |
| 2026-05-01 15:14 | 48.04381 | 4.52148 | 24312 ft | 397 kts | 317° |
| 2026-05-01 15:14 | 48.08546 | 4.46785 | 23784 ft | 393 kts | 317° |
| 2026-05-01 15:15 | 48.12680 | 4.41464 | 23227 ft | 390 kts | 317° |
| 2026-05-01 15:15 | 48.16394 | 4.35638 | 22715 ft | 384 kts | 308° |
| 2026-05-01 15:16 | 48.19827 | 4.29520 | 22456 ft | 383 kts | 308° |
| 2026-05-01 15:16 | 48.23242 | 4.23392 | 22232 ft | 383 kts | 307° |
| 2026-05-01 15:17 | 48.26653 | 4.17301 | 22075 ft | 384 kts | 308° |
| 2026-05-01 15:18 | 48.31864 | 4.08186 | 21834 ft | 383 kts | 308° |
| 2026-05-01 15:18 | 48.33595 | 4.05152 | 21756 ft | 382 kts | 308° |
| 2026-05-01 15:19 | 48.38764 | 3.96039 | 20975 ft | 384 kts | 308° |
| 2026-05-01 15:19 | 48.42207 | 3.89931 | 20090 ft | 380 kts | 308° |
| 2026-05-01 15:19 | 48.43919 | 3.86899 | 19646 ft | 379 kts | 308° |
| 2026-05-01 15:20 | 48.47293 | 3.80924 | 19177 ft | 367 kts | 308° |
| 2026-05-01 15:20 | 48.48945 | 3.77985 | 19149 ft | 367 kts | 307° |
| 2026-05-01 15:20 | 48.50612 | 3.75002 | 18372 ft | 378 kts | 307° |
| 2026-05-01 15:21 | 48.52315 | 3.71946 | 17759 ft | 381 kts | 307° |
| 2026-05-01 15:21 | 48.54026 | 3.68896 | 17267 ft | 379 kts | 308° |
| 2026-05-01 15:21 | 48.55734 | 3.65882 | 16828 ft | 377 kts | 308° |
| 2026-05-01 15:21 | 48.57435 | 3.62887 | 16403 ft | 374 kts | 308° |
| 2026-05-01 15:22 | 48.60773 | 3.56980 | 15585 ft | 369 kts | 307° |
| 2026-05-01 15:22 | 48.62213 | 3.53823 | 15330 ft | 360 kts | 300° |
| 2026-05-01 15:22 | 48.63566 | 3.50651 | 15179 ft | 350 kts | 301° |
| 2026-05-01 15:23 | 48.64692 | 3.47501 | 14944 ft | 341 kts | 289° |
| 2026-05-01 15:23 | 48.65580 | 3.44198 | 14808 ft | 340 kts | 289° |
| 2026-05-01 15:23 | 48.66485 | 3.40829 | 14695 ft | 349 kts | 289° |
| 2026-05-01 15:23 | 48.67390 | 3.37466 | 14573 ft | 341 kts | 289° |
| 2026-05-01 15:24 | 48.68295 | 3.34096 | 14455 ft | 348 kts | 289° |
| 2026-05-01 15:24 | 48.69205 | 3.30701 | 14339 ft | 349 kts | 289° |
| 2026-05-01 15:24 | 48.70117 | 3.27287 | 14221 ft | 349 kts | 289° |
| 2026-05-01 15:24 | 48.71026 | 3.23878 | 14098 ft | 348 kts | 289° |
| 2026-05-01 15:25 | 48.71930 | 3.20481 | 13980 ft | 348 kts | 289° |
| 2026-05-01 15:25 | 48.72829 | 3.17092 | 13850 ft | 347 kts | 289° |
| 2026-05-01 15:25 | 48.73728 | 3.13698 | 13723 ft | 346 kts | 289° |
| 2026-05-01 15:25 | 48.74620 | 3.10318 | 13647 ft | 345 kts | 289° |
| 2026-05-01 15:26 | 48.75508 | 3.06946 | 13571 ft | 344 kts | 289° |
| 2026-05-01 15:26 | 48.76395 | 3.03579 | 13503 ft | 343 kts | 289° |
| 2026-05-01 15:26 | 48.77261 | 3.00281 | 13424 ft | 340 kts | 289° |
| 2026-05-01 15:26 | 48.78136 | 2.96950 | 13289 ft | 339 kts | 289° |
| 2026-05-01 15:27 | 48.79010 | 2.93651 | 13177 ft | 338 kts | 289° |
| 2026-05-01 15:27 | 48.79895 | 2.90339 | 13205 ft | 338 kts | 289° |
| 2026-05-01 15:27 | 48.80779 | 2.87033 | 13204 ft | 339 kts | 289° |
| 2026-05-01 15:28 | 48.82539 | 2.80414 | 12980 ft | 337 kts | 289° |
| 2026-05-01 15:28 | 48.83412 | 2.77114 | 12855 ft | 337 kts | 289° |
| 2026-05-01 15:28 | 48.84287 | 2.73817 | 12718 ft | 336 kts | 289° |
| 2026-05-01 15:29 | 48.86029 | 2.67253 | 12461 ft | 334 kts | 289° |
| 2026-05-01 15:29 | 48.86899 | 2.63973 | 12334 ft | 334 kts | 289° |
| 2026-05-01 15:29 | 48.88616 | 2.57473 | 11660 ft | 332 kts | 289° |
| 2026-05-01 15:30 | 48.90329 | 2.50937 | 10832 ft | 329 kts | 289° |
| 2026-05-01 15:31 | 48.91166 | 2.37662 | 9032 ft | 316 kts | 262° |
| 2026-05-01 15:31 | 48.90816 | 2.31263 | 8761 ft | 290 kts | 262° |
| 2026-05-01 15:32 | 48.90508 | 2.25604 | 8502 ft | 248 kts | 261° |
| 2026-05-01 15:32 | 48.90222 | 2.20634 | 8122 ft | 230 kts | 261° |
| 2026-05-01 15:33 | 48.89781 | 2.13278 | 6549 ft | 238 kts | 261° |
| 2026-05-01 15:34 | 48.90279 | 2.06229 | 5893 ft | 229 kts | 311° |